Terminal Aerodrome Forecast
Issued by NWS

Home | Current Version | Previous Version | Text Only | Print | Product List | Glossary On
Versions: 1 2 3 4 5 6 7 8 9 10 11 12 13 14 15 16 17 18 19 20 21
000
FTUS41 KALY 032335
TAFPSF
TAF
KPSF 032335Z 0400/0424 24005KT P6SM SCT100
     FM040200 00000KT P6SM SKC
     FM041400 22008G15KT P6SM FEW070 FEW250
     FM041800 24014G24KT P6SM SCT070 BKN250=

USA.gov is the U.S. government's official web portal to all federal, state and local government web resources and services.